Jackson, Mississippi
Current Conditions -  °F | °C
As of 7:53 AM on Monday 24 Nov 2014 (Local Time) from KHKS Reporting Station
Overcast Overcast  
Wind Chill: 53°   Ceiling: 2400
Heat Index: 53°   Visibility: 10mi
Dew Point: 43°   Wind: 12mph
Humidity: 69%   Direction: 300°WNW
Pressure: 29.88"   Gusts: 18mph
Location:  32.3°N, 90.18°W
Report Text: KHKS 241353Z 30010G16KT 10SM OVC024 12/06 A2988 RMK AO2 SLP112 T01170061
Loading
Personal Weather Stations






























Interactive Weather Map New forecast layout! Learn more

10-Day Weather Forecast

Advertisements
Track Severe Weather on mobile